createdAt,value
2023-04-25T00:01:39.084Z,1.97
2023-04-25T00:04:10.906Z,2.07
2023-04-25T00:06:38.891Z,2.13
2023-04-25T00:09:08.512Z,2.00
2023-04-25T00:11:36.600Z,1.77
2023-04-25T00:14:04.689Z,1.80
2023-04-25T00:16:35.081Z,3.47
2023-04-25T00:19:04.346Z,2.40
2023-04-25T00:21:33.824Z,2.60
2023-04-25T00:24:01.979Z,2.23
2023-04-25T00:26:30.005Z,2.67
2023-04-25T00:28:57.886Z,2.83
2023-04-25T00:31:25.893Z,2.13
2023-04-25T00:33:54.138Z,2.07
2023-04-25T00:36:22.125Z,2.40
2023-04-25T00:38:51.531Z,2.40
2023-04-25T00:41:19.467Z,2.10
2023-04-25T00:43:48.366Z,2.10
2023-04-25T00:46:16.343Z,2.53
2023-04-25T00:48:44.319Z,2.50
2023-04-25T00:51:13.586Z,2.57
2023-04-25T00:53:41.685Z,2.30
2023-04-25T00:56:10.936Z,3.30
2023-04-25T00:58:39.838Z,2.73
2023-04-25T01:01:09.251Z,2.90
2023-04-25T01:03:41.833Z,2.60
2023-04-25T01:06:11.350Z,2.60
2023-04-25T01:08:40.398Z,3.00
2023-04-25T01:11:08.455Z,2.87
2023-04-25T01:13:38.023Z,2.47
2023-04-25T01:16:06.772Z,2.50
2023-04-25T01:18:35.091Z,2.80
2023-04-25T01:21:11.076Z,2.67
2023-04-25T01:23:39.805Z,2.10
2023-04-25T01:26:08.733Z,2.47
2023-04-25T01:28:36.738Z,3.23
2023-04-25T01:31:05.139Z,2.30
2023-04-25T01:33:33.090Z,2.47
2023-04-25T01:36:01.087Z,2.90
2023-04-25T01:38:30.466Z,2.63
2023-04-25T01:40:58.427Z,2.83
2023-04-25T01:43:27.491Z,2.50
2023-04-25T01:45:55.666Z,2.80
2023-04-25T01:48:23.650Z,2.87
2023-04-25T01:50:51.565Z,2.77
2023-04-25T01:53:19.508Z,3.00
2023-04-25T01:55:48.843Z,3.33
2023-04-25T01:58:16.716Z,2.73
2023-04-25T02:00:44.661Z,2.90
2023-04-25T02:03:12.697Z,2.70
2023-04-25T02:05:41.326Z,2.50
2023-04-25T02:08:09.915Z,2.43
2023-04-25T02:10:38.192Z,2.67
2023-04-25T02:13:07.560Z,2.50
2023-04-25T02:15:35.486Z,2.40
2023-04-25T02:18:03.529Z,2.60
2023-04-25T02:20:32.494Z,3.03
2023-04-25T02:23:00.555Z,2.40
2023-04-25T02:25:28.692Z,2.13
2023-04-25T02:27:56.604Z,2.33
2023-04-25T02:30:25.995Z,2.40
2023-04-25T02:32:53.950Z,2.87
2023-04-25T02:35:22.073Z,2.40
2023-04-25T02:37:50.003Z,2.77
2023-04-25T02:40:17.890Z,2.33
2023-04-25T02:42:46.741Z,2.30
2023-04-25T02:45:14.644Z,2.47
2023-04-25T02:47:44.240Z,3.57
2023-04-25T02:50:12.362Z,2.67
2023-04-25T02:52:40.254Z,2.70
2023-04-25T02:55:08.901Z,2.93
2023-04-25T02:57:36.812Z,2.97
2023-04-25T03:00:06.790Z,2.67
2023-04-25T03:02:34.846Z,2.53
2023-04-25T03:05:04.485Z,2.33
2023-04-25T03:07:32.406Z,3.23
2023-04-25T03:10:00.689Z,2.43
2023-04-25T03:12:28.650Z,2.23
2023-04-25T03:14:56.557Z,2.87
2023-04-25T03:17:24.542Z,2.13
2023-04-25T03:19:52.540Z,2.70
2023-04-25T03:22:21.808Z,2.37
2023-04-25T03:24:49.714Z,2.50
2023-04-25T03:27:17.704Z,2.27
2023-04-25T03:29:45.696Z,2.90
2023-04-25T03:32:13.815Z,2.37
2023-04-25T03:34:41.955Z,2.40
2023-04-25T03:37:09.854Z,2.33
2023-04-25T03:39:39.525Z,2.57
2023-04-25T03:42:07.540Z,2.57
2023-04-25T03:44:35.435Z,2.00
2023-04-25T03:47:03.315Z,2.40
2023-04-25T03:49:31.603Z,2.40
2023-04-25T03:51:59.499Z,2.60
2023-04-25T03:54:27.382Z,2.50
2023-04-25T03:56:56.708Z,2.00
2023-04-25T03:59:24.648Z,2.07
2023-04-25T04:01:52.566Z,2.53
2023-04-25T04:04:21.205Z,2.80
2023-04-25T04:06:49.494Z,2.10
2023-04-25T04:09:17.803Z,2.53
2023-04-25T04:11:45.760Z,2.20
2023-04-25T04:14:15.185Z,1.97
2023-04-25T04:16:43.073Z,3.13
2023-04-25T04:19:11.035Z,2.23
2023-04-25T04:21:38.931Z,2.07
2023-04-25T04:24:07.827Z,1.67
2023-04-25T04:26:35.900Z,2.43
2023-04-25T04:29:03.952Z,1.60
2023-04-25T04:31:33.800Z,2.30
2023-04-25T04:34:02.742Z,2.10
2023-04-25T04:36:30.647Z,1.87
2023-04-25T04:38:58.573Z,2.07
2023-04-25T04:41:26.514Z,2.10
2023-04-25T04:43:54.416Z,2.30
2023-04-25T04:46:22.693Z,2.17
2023-04-25T04:48:52.713Z,2.10
2023-04-25T04:51:21.712Z,2.53
2023-04-25T04:53:49.797Z,2.03
2023-04-25T04:56:17.816Z,2.60
2023-04-25T04:58:45.720Z,2.13
2023-04-25T05:01:13.645Z,2.13
2023-04-25T05:03:41.782Z,2.00
2023-04-25T05:06:11.170Z,1.90
2023-04-25T05:08:39.075Z,1.80
2023-04-25T05:11:07.056Z,2.17
2023-04-25T05:13:34.990Z,2.00
2023-04-25T05:16:02.940Z,2.03
2023-04-25T05:18:30.899Z,2.30
2023-04-25T05:20:58.804Z,1.77
2023-04-25T05:23:28.934Z,2.03
2023-04-25T05:25:56.949Z,2.07
2023-04-25T05:28:24.867Z,1.53
2023-04-25T05:30:53.321Z,1.70
2023-04-25T05:33:21.586Z,2.03
2023-04-25T05:35:49.531Z,1.70
2023-04-25T05:38:17.406Z,2.67
2023-04-25T05:40:47.144Z,1.60
2023-04-25T05:43:15.033Z,1.93
2023-04-25T05:45:43.127Z,2.10
2023-04-25T05:48:11.305Z,2.17
2023-04-25T05:50:39.244Z,2.70
2023-04-25T05:53:07.208Z,1.63
2023-04-25T05:55:35.119Z,1.83
2023-04-25T05:58:04.370Z,1.97
2023-04-25T06:00:32.306Z,1.80
2023-04-25T06:03:00.621Z,2.43
2023-04-25T06:05:28.911Z,1.80
2023-04-25T06:07:56.884Z,1.77
2023-04-25T06:10:24.953Z,2.17
2023-04-25T06:12:52.814Z,1.93
2023-04-25T06:15:27.941Z,1.50
2023-04-25T06:17:57.153Z,2.23
2023-04-25T06:20:25.690Z,2.40
2023-04-25T06:22:54.099Z,21.00
2023-04-25T06:25:22.373Z,29.13
2023-04-25T06:27:50.357Z,7.40
2023-04-25T06:30:19.502Z,5.20
2023-04-25T06:32:48.827Z,5.83
2023-04-25T06:35:17.117Z,3.17
2023-04-25T06:37:45.000Z,3.47
2023-04-25T06:40:13.128Z,3.93
2023-04-25T06:42:41.105Z,4.50
2023-04-25T06:45:10.031Z,2.17
2023-04-25T06:47:37.939Z,2.57
2023-04-25T06:50:08.557Z,2.53
2023-04-25T06:52:36.451Z,2.23
2023-04-25T06:55:05.944Z,1.80
2023-04-25T06:57:33.919Z,2.33
2023-04-25T07:00:02.415Z,2.30
2023-04-25T07:02:30.809Z,2.00
2023-04-25T07:05:00.859Z,2.00
2023-04-25T07:07:30.195Z,2.63
2023-04-25T07:09:58.193Z,3.03
2023-04-25T07:12:26.155Z,2.83
2023-04-25T07:14:54.073Z,2.97
2023-04-25T07:17:22.716Z,2.97
2023-04-25T07:19:50.813Z,1.90
2023-04-25T07:22:18.868Z,1.57
2023-04-25T07:24:49.898Z,2.53
2023-04-25T07:27:17.930Z,2.57
2023-04-25T07:29:45.979Z,2.13
2023-04-25T07:32:15.104Z,1.57
2023-04-25T07:34:43.190Z,1.30
2023-04-25T07:37:11.456Z,1.30
2023-04-25T07:39:39.466Z,1.30
2023-04-25T07:42:09.539Z,1.40
2023-04-25T07:44:39.776Z,1.50
2023-04-25T07:47:09.100Z,1.63
2023-04-25T07:49:37.058Z,1.70
2023-04-25T07:52:06.195Z,1.67
2023-04-25T07:54:34.342Z,1.80
2023-04-25T07:57:02.248Z,1.40
2023-04-25T07:59:31.751Z,1.50
2023-04-25T08:01:59.654Z,1.67
2023-04-25T08:04:27.797Z,1.20
2023-04-25T08:06:55.836Z,1.03
2023-04-25T08:09:23.868Z,1.50
2023-04-25T08:11:51.785Z,1.30
2023-04-25T08:14:19.682Z,11.57
2023-04-25T08:16:48.998Z,6.07
2023-04-25T08:19:16.895Z,6.17
2023-04-25T08:21:44.806Z,3.83
2023-04-25T08:24:12.713Z,2.30
2023-04-25T08:26:41.721Z,1.80
2023-04-25T08:29:09.635Z,1.60
2023-04-25T08:31:37.648Z,1.30
2023-04-25T08:34:06.997Z,1.67
2023-04-25T08:36:39.423Z,1.20
2023-04-25T08:39:08.270Z,2.13
2023-04-25T08:41:36.714Z,1.20
2023-04-25T08:44:05.521Z,1.07
2023-04-25T08:46:33.662Z,1.43
2023-04-25T08:49:03.389Z,1.20
2023-04-25T08:51:34.534Z,1.17
2023-04-25T08:54:28.056Z,1.27
2023-04-25T08:56:59.924Z,1.07
2023-04-25T08:59:28.267Z,1.47
2023-04-25T09:01:56.988Z,1.13
2023-04-25T09:04:25.432Z,1.17
2023-04-25T09:06:54.862Z,1.53
2023-04-25T09:09:22.791Z,1.73
2023-04-25T09:11:50.930Z,1.10
2023-04-25T09:14:21.560Z,1.53
2023-04-25T09:17:03.587Z,2.10
2023-04-25T09:19:40.284Z,1.50
2023-04-25T09:22:10.240Z,1.70
2023-04-25T09:24:39.968Z,1.60
2023-04-25T09:27:08.635Z,1.20
2023-04-25T09:29:38.661Z,1.43
2023-04-25T09:32:14.718Z,2.13
2023-04-25T09:34:43.900Z,1.13
2023-04-25T09:37:13.751Z,1.40
2023-04-25T09:39:41.827Z,0.93
2023-04-25T09:42:11.592Z,1.50
2023-04-25T09:44:39.478Z,1.50
2023-04-25T09:47:12.024Z,1.20
2023-04-25T09:49:42.313Z,1.57
2023-04-25T09:52:10.594Z,1.07
2023-04-25T09:54:39.963Z,1.30
2023-04-25T09:57:13.314Z,1.73
2023-04-25T09:59:45.875Z,1.40
2023-04-25T10:02:14.498Z,1.00
2023-04-25T10:04:43.311Z,1.37
2023-04-25T10:07:11.531Z,1.47
2023-04-25T10:09:41.777Z,1.00
2023-04-25T10:12:10.168Z,1.03
2023-04-25T10:14:38.249Z,1.30
2023-04-25T10:17:06.231Z,1.13
2023-04-25T10:19:34.388Z,1.30
2023-04-25T10:22:09.671Z,0.80
2023-04-25T10:24:38.109Z,1.47
2023-04-25T10:27:07.992Z,1.13
2023-04-25T10:29:36.013Z,1.10
2023-04-25T10:32:04.590Z,1.20
2023-04-25T10:34:42.923Z,1.00
2023-04-25T10:37:11.718Z,1.40
2023-04-25T10:39:41.405Z,1.00
2023-04-25T10:42:10.927Z,0.87
2023-04-25T10:44:40.321Z,1.10
2023-04-25T10:47:10.636Z,1.00
2023-04-25T10:49:40.453Z,1.30
2023-04-25T10:52:20.273Z,1.60
2023-04-25T10:54:53.564Z,0.90
2023-04-25T10:57:39.427Z,0.90
2023-04-25T11:00:12.178Z,1.23
2023-04-25T11:02:44.072Z,1.10
2023-04-25T11:05:12.335Z,1.07
2023-04-25T11:07:42.265Z,1.10
2023-04-25T11:10:11.414Z,1.13
2023-04-25T11:12:41.514Z,1.07
2023-04-25T11:15:10.592Z,1.40
2023-04-25T11:17:40.575Z,1.80
2023-04-25T11:20:12.478Z,1.27
2023-04-25T11:22:42.937Z,1.47
2023-04-25T11:25:12.423Z,1.50
2023-04-25T11:27:52.213Z,1.17
2023-04-25T11:30:21.593Z,1.37
2023-04-25T11:32:50.339Z,1.10
2023-04-25T11:35:18.811Z,1.30
2023-04-25T11:37:46.987Z,1.23
2023-04-25T11:40:15.494Z,1.40
2023-04-25T11:42:47.988Z,1.57
2023-04-25T11:45:16.904Z,1.40
2023-04-25T11:47:45.192Z,1.03
2023-04-25T11:50:15.465Z,0.87
2023-04-25T11:52:44.563Z,0.97
2023-04-25T11:55:15.689Z,1.30
2023-04-25T11:57:44.341Z,1.47
2023-04-25T12:00:19.062Z,1.13
2023-04-25T12:02:49.867Z,1.27
2023-04-25T12:07:49.206Z,1.00
2023-04-25T12:10:18.364Z,1.40
2023-04-25T12:12:47.577Z,0.67
2023-04-25T12:15:20.521Z,0.90
2023-04-25T12:17:49.821Z,1.03
2023-04-25T12:20:19.131Z,0.70
2023-04-25T12:22:48.344Z,1.07
2023-04-25T12:25:36.394Z,1.13
2023-04-25T12:28:15.096Z,0.90
2023-04-25T12:31:01.893Z,1.27
2023-04-25T12:33:31.684Z,0.97
2023-04-25T12:36:00.454Z,0.80
2023-04-25T12:38:30.339Z,1.07
2023-04-25T12:40:58.657Z,1.13
2023-04-25T12:43:27.025Z,1.10
2023-04-25T12:45:56.177Z,2.67
2023-04-25T12:48:25.767Z,1.70
2023-04-25T12:50:54.200Z,1.47
2023-04-25T12:53:24.654Z,1.30
2023-04-25T12:55:52.964Z,1.20
2023-04-25T12:58:22.124Z,1.20
2023-04-25T13:00:50.117Z,1.23
2023-04-25T13:03:19.114Z,1.07
2023-04-25T13:05:48.499Z,1.37
2023-04-25T13:08:16.414Z,1.50
2023-04-25T13:10:44.418Z,1.07
2023-04-25T13:13:12.343Z,1.10
2023-04-25T13:15:40.268Z,1.03
2023-04-25T13:18:08.718Z,1.03
2023-04-25T13:20:36.693Z,1.30
2023-04-25T13:23:06.061Z,1.20
2023-04-25T13:25:34.024Z,1.23
2023-04-25T13:28:01.949Z,0.90
2023-04-25T13:30:29.888Z,0.80
2023-04-25T13:32:59.600Z,1.20
2023-04-25T13:35:27.717Z,0.83
2023-04-25T13:37:55.733Z,0.93
2023-04-25T13:40:25.738Z,1.57
2023-04-25T13:42:53.848Z,1.00
2023-04-25T13:45:21.879Z,1.10
2023-04-25T13:47:50.008Z,1.00
2023-04-25T13:50:18.066Z,1.03
2023-04-25T13:52:46.097Z,1.20
2023-04-25T13:55:13.982Z,1.20
2023-04-25T13:57:43.623Z,1.23
2023-04-25T14:00:12.687Z,1.00
2023-04-25T14:02:40.895Z,1.00
2023-04-25T14:05:10.434Z,1.03
2023-04-25T14:07:38.927Z,1.13
2023-04-25T14:10:08.004Z,1.33
2023-04-25T14:12:36.156Z,0.87
2023-04-25T14:15:06.315Z,0.83
2023-04-25T14:17:34.425Z,1.03
2023-04-25T14:20:02.639Z,2.83
2023-04-25T14:22:30.639Z,1.10
2023-04-25T14:24:59.115Z,1.50
2023-04-25T14:27:29.137Z,1.03
2023-04-25T14:29:57.427Z,0.93
2023-04-25T14:32:26.958Z,1.53
2023-04-25T14:34:54.933Z,1.10
2023-04-25T14:37:22.859Z,1.43
2023-04-25T14:39:50.819Z,1.50
2023-04-25T14:42:18.704Z,2.87
2023-04-25T14:44:46.841Z,1.40
2023-04-25T14:47:14.785Z,2.80
2023-04-25T14:49:44.080Z,1.10
2023-04-25T14:52:12.024Z,1.50
2023-04-25T14:54:39.939Z,1.20
2023-04-25T14:57:08.505Z,1.30
2023-04-25T14:59:36.549Z,1.33
2023-04-25T15:02:04.611Z,1.10
2023-04-25T15:04:33.146Z,1.57
2023-04-25T15:07:02.507Z,1.10
2023-04-25T15:09:30.447Z,1.67
2023-04-25T15:11:58.970Z,1.37
2023-04-25T15:14:26.937Z,1.60
2023-04-25T15:16:54.981Z,2.00
2023-04-25T15:19:22.973Z,1.53
2023-04-25T15:21:50.922Z,1.60
2023-04-25T15:24:20.216Z,2.03
2023-04-25T15:26:48.122Z,1.40
2023-04-25T15:29:16.478Z,1.60
2023-04-25T15:31:44.453Z,1.20
2023-04-25T15:34:12.363Z,1.37
2023-04-25T15:36:40.310Z,1.13
2023-04-25T15:39:08.242Z,1.00
2023-04-25T15:41:38.245Z,1.07
2023-04-25T15:44:07.970Z,0.87
2023-04-25T15:46:36.058Z,0.90
2023-04-25T15:49:04.055Z,0.73
2023-04-25T15:51:31.994Z,1.53
2023-04-25T15:53:59.904Z,1.20
2023-04-25T15:56:27.837Z,1.00
2023-04-25T15:58:57.165Z,1.27
2023-04-25T16:01:26.290Z,1.33
2023-04-25T16:03:54.551Z,1.20
2023-04-25T16:06:22.837Z,1.00
2023-04-25T16:08:52.116Z,1.10
2023-04-25T16:11:20.248Z,1.00
2023-04-25T16:13:48.303Z,0.87
2023-04-25T16:16:17.788Z,1.33
2023-04-25T16:18:45.777Z,1.00
2023-04-25T16:21:17.332Z,1.37
2023-04-25T16:23:45.396Z,1.20
2023-04-25T16:26:13.454Z,0.87
2023-04-25T16:28:41.331Z,1.30
2023-04-25T16:31:09.335Z,1.30
2023-04-25T16:33:38.615Z,1.00
2023-04-25T16:36:07.571Z,0.97
2023-04-25T16:38:35.692Z,1.30
2023-04-25T16:41:03.595Z,1.07
2023-04-25T16:43:31.871Z,1.30
2023-04-25T16:46:00.498Z,1.67
2023-04-25T16:48:28.394Z,1.20
2023-04-25T16:50:57.684Z,1.03
2023-04-25T16:53:25.715Z,1.33
2023-04-25T16:55:53.748Z,1.40
2023-04-25T16:58:21.982Z,1.20
2023-04-25T17:00:50.002Z,1.30
2023-04-25T17:03:18.134Z,0.93
2023-04-25T17:05:46.664Z,0.87
2023-04-25T17:08:15.994Z,1.33
2023-04-25T17:10:43.987Z,1.30
2023-04-25T17:13:11.888Z,1.17
2023-04-25T17:15:39.820Z,1.20
2023-04-25T17:18:07.788Z,1.07
2023-04-25T17:20:36.010Z,1.20
2023-04-25T17:23:04.020Z,1.07
2023-04-25T17:25:33.774Z,0.90
2023-04-25T17:28:01.716Z,1.53
2023-04-25T17:30:30.487Z,1.27
2023-04-25T17:32:58.412Z,1.30
2023-04-25T17:35:26.877Z,1.27
2023-04-25T17:37:54.787Z,0.77
2023-04-25T17:40:22.719Z,1.10
2023-04-25T17:42:52.081Z,1.80
2023-04-25T17:45:20.059Z,1.10
2023-04-25T17:47:48.091Z,0.90
2023-04-25T17:50:16.882Z,1.13
2023-04-25T17:52:48.302Z,0.90
2023-04-25T17:55:16.353Z,1.00
2023-04-25T17:57:44.323Z,1.20
2023-04-25T18:00:14.760Z,1.00
2023-04-25T18:02:42.846Z,0.70
2023-04-25T18:05:11.237Z,0.60
2023-04-25T18:07:39.220Z,1.10
2023-04-25T18:10:10.230Z,0.80
2023-04-25T18:12:38.375Z,1.40
2023-04-25T18:15:07.690Z,0.90
2023-04-25T18:17:40.390Z,1.17
2023-04-25T18:20:11.943Z,1.03
2023-04-25T18:22:40.430Z,1.23
2023-04-25T18:25:11.056Z,1.67
2023-04-25T18:27:39.185Z,0.93
2023-04-25T18:30:08.930Z,1.10
2023-04-25T18:32:38.563Z,1.10
2023-04-25T18:35:07.320Z,1.00
2023-04-25T18:37:35.240Z,0.87
2023-04-25T18:40:07.245Z,1.40
2023-04-25T18:42:35.184Z,0.77
2023-04-25T18:45:03.129Z,1.77
2023-04-25T18:47:31.024Z,1.00
2023-04-25T18:50:00.273Z,1.00
2023-04-25T18:52:28.171Z,1.17
2023-04-25T18:54:56.200Z,1.27
2023-04-25T18:57:24.172Z,0.90
2023-04-25T18:59:52.276Z,0.90
2023-04-25T19:02:20.371Z,1.23
2023-04-25T19:04:48.394Z,1.03
2023-04-25T19:07:18.085Z,1.30
2023-04-25T19:09:45.986Z,1.27
2023-04-25T19:12:13.915Z,1.20
2023-04-25T19:14:42.879Z,1.50
2023-04-25T19:17:11.786Z,1.10
2023-04-25T19:19:39.721Z,0.93
2023-04-25T19:22:07.696Z,0.97
2023-04-25T19:24:36.952Z,0.90
2023-04-25T19:27:04.922Z,0.80
2023-04-25T19:29:34.090Z,1.07
2023-04-25T19:32:03.439Z,1.13
2023-04-25T19:34:31.375Z,0.97
2023-04-25T19:36:59.277Z,1.07
2023-04-25T19:39:27.458Z,1.10
2023-04-25T19:41:57.586Z,0.80
2023-04-25T19:44:26.050Z,0.97
2023-04-25T19:46:54.124Z,1.20
2023-04-25T19:49:22.330Z,0.87
2023-04-25T19:51:50.264Z,0.77
2023-04-25T19:54:22.827Z,0.83
2023-04-25T19:56:51.280Z,0.93
2023-04-25T19:59:20.574Z,0.77
2023-04-25T20:01:48.875Z,1.03
2023-04-25T20:04:18.303Z,0.97
2023-04-25T20:06:46.293Z,0.80
2023-04-25T20:09:14.232Z,1.37
2023-04-25T20:11:42.453Z,0.77
2023-04-25T20:14:10.395Z,1.20
2023-04-25T20:16:39.803Z,1.73
2023-04-25T20:19:07.799Z,1.30
2023-04-25T20:21:35.821Z,1.03
2023-04-25T20:24:03.703Z,0.90
2023-04-25T20:26:33.958Z,1.17
2023-04-25T20:29:02.164Z,1.20
2023-04-25T20:31:31.259Z,1.00
2023-04-25T20:34:01.009Z,1.20
2023-04-25T20:36:28.986Z,0.70
2023-04-25T20:38:57.205Z,1.00
2023-04-25T20:41:25.217Z,1.30
2023-04-25T20:43:54.242Z,1.53
2023-04-25T20:46:22.350Z,1.20
2023-04-25T20:48:52.792Z,1.23
2023-04-25T20:51:23.046Z,0.80
2023-04-25T20:53:50.990Z,1.63
2023-04-25T20:56:19.054Z,0.70
2023-04-25T20:58:47.395Z,1.20
2023-04-25T21:01:15.305Z,1.17
2023-04-25T21:03:43.660Z,0.90
2023-04-25T21:06:11.781Z,0.90
2023-04-25T21:08:41.204Z,1.13
2023-04-25T21:11:09.841Z,2.27
2023-04-25T21:13:37.753Z,1.93
2023-04-25T21:16:06.690Z,1.03
2023-04-25T21:18:34.862Z,1.07
2023-04-25T21:21:04.251Z,0.90
2023-04-25T21:23:32.988Z,1.10
2023-04-25T21:26:02.260Z,1.10
2023-04-25T21:28:30.206Z,1.23
2023-04-25T21:30:58.289Z,0.93
2023-04-25T21:33:26.222Z,0.90
2023-04-25T21:35:54.104Z,1.10
2023-04-25T21:38:22.227Z,1.00
2023-04-25T21:40:50.860Z,1.10
2023-04-25T21:43:20.152Z,0.80
2023-04-25T21:46:14.771Z,1.17
2023-04-25T21:48:36.112Z,1.00
2023-04-25T21:51:04.242Z,1.00
2023-04-25T21:53:32.174Z,1.00
2023-04-25T21:56:00.226Z,1.03
2023-04-25T21:58:29.494Z,1.13
2023-04-25T22:00:57.406Z,0.80
2023-04-25T22:03:25.535Z,1.53
2023-04-25T22:05:55.795Z,1.10
2023-04-25T22:08:23.697Z,1.40
2023-04-25T22:10:57.267Z,1.20
2023-04-25T22:13:25.915Z,1.40
2023-04-25T22:15:55.220Z,0.90
2023-04-25T22:18:23.348Z,1.40
2023-04-25T22:20:51.256Z,1.10
2023-04-25T22:23:19.163Z,1.23
2023-04-25T22:25:47.466Z,1.10
2023-04-25T22:28:15.348Z,1.67
2023-04-25T22:30:43.986Z,1.10
2023-04-25T22:33:13.290Z,1.00
2023-04-25T22:35:41.367Z,1.23
2023-04-25T22:38:09.288Z,1.23
2023-04-25T22:40:37.669Z,1.23
2023-04-25T22:43:05.650Z,1.50
2023-04-25T22:45:35.812Z,1.47
2023-04-25T22:48:03.846Z,1.57
2023-04-25T22:50:33.523Z,1.10
2023-04-25T22:53:01.730Z,2.13
2023-04-25T22:55:29.624Z,1.00
2023-04-25T22:57:57.526Z,1.57
2023-04-25T23:00:26.351Z,1.47
2023-04-25T23:02:55.084Z,1.23
2023-04-25T23:05:24.448Z,1.00
2023-04-25T23:07:53.830Z,1.13
2023-04-25T23:10:21.737Z,1.03
2023-04-25T23:12:49.616Z,0.90
2023-04-25T23:15:18.038Z,1.13
2023-04-25T23:17:46.020Z,0.87
2023-04-25T23:20:14.520Z,1.00
2023-04-25T23:22:42.783Z,1.50
2023-04-25T23:25:12.814Z,1.27
2023-04-25T23:27:40.707Z,1.33
2023-04-25T23:30:10.650Z,1.43
2023-04-25T23:32:39.124Z,1.20
2023-04-25T23:35:08.533Z,1.30
2023-04-25T23:37:37.231Z,1.60
2023-04-25T23:40:08.378Z,1.50
2023-04-25T23:42:38.801Z,1.23
2023-04-25T23:45:08.291Z,1.10
2023-04-25T23:47:36.612Z,1.47
2023-04-25T23:50:04.984Z,1.17
2023-04-25T23:52:32.935Z,1.30
2023-04-25T23:55:01.078Z,1.33
2023-04-25T23:57:29.083Z,1.07
2023-04-25T23:59:58.346Z,1.20
